PWSweather.com
Personal Weather Stations
Station Observations
VPOKROGLO
Kal Nad Kanalom, PrimorskaSI

Kal Nad KanalomPrimorskaSI

Lat: 46.072, Lon: 13.734

Elevation: 2526

Station Type: WS-2355

http://www.okroglovreme.com

High Low Average
Temperature 45.3°F7.4°C 34.9°F1.6°C 38.9°F3.8°C
Dew Point 34.5°F1.4°C 28.7°F-1.8°C 31.8°F-0.1°C
Winds 8.6 mph 13.8 kmh 0.9 mph 1.4 kmh 6.0 mph SSE9.7 kmh SSE
Wind Gusts 27.1 mph43.6 kmh 2.7 mph4.3 kmh 15.0 mph24.1 kmh
Humidity 82% 65% 76%
Pressure 29.97 in1014.9 mb 29.91 in1012.9 mb -
Precipitation 0.00 in0.0 mm - -
Hour Temp Dew Point Humidity Winds Wind Gusts Pressure Precip Precip Rate Daily Precip Total
12:00 AM 38.3°F3.5°C 33.0°F0.6°C 81% 7.9 mph SE12.7 kmh SE 16.6 mph26.7 kmh 29.97 in1014.9 mb 0.00 in0.0 mm 0.00 in0.0 mm 0.00 in0.0 mm
12:15 AM 38.3°F3.5°C 33.0°F0.6°C 81% 7.8 mph SE12.6 kmh SE 27.1 mph43.6 kmh 29.97 in1014.9 mb 0.00 in0.0 mm 0.00 in0.0 mm 0.00 in0.0 mm
12:30 AM 38.1°F3.4°C 32.8°F0.4°C 81% 7.8 mph SE12.6 kmh SE 20.1 mph32.3 kmh 29.97 in1014.9 mb 0.00 in0.0 mm 0.00 in0.0 mm 0.00 in0.0 mm
12:45 AM 37.9°F3.3°C 32.9°F0.5°C 82% 7.1 mph SE11.4 kmh SE 17.7 mph28.5 kmh 29.96 in1014.6 mb 0.00 in0.0 mm 0.00 in0.0 mm 0.00 in0.0 mm
01:00 AM 37.8°F3.2°C 32.5°F0.3°C 81% 7.4 mph ESE11.9 kmh ESE 17.7 mph28.5 kmh 29.96 in1014.6 mb 0.00 in0.0 mm 0.00 in0.0 mm 0.00 in0.0 mm
01:15 AM 37.9°F3.3°C 32.6°F0.3°C 81% 6.4 mph SE10.3 kmh SE 17.7 mph28.5 kmh 29.96 in1014.6 mb 0.00 in0.0 mm 0.00 in0.0 mm 0.00 in0.0 mm
01:30 AM 37.8°F3.2°C 32.5°F0.3°C 81% 6.2 mph ESE10.0 kmh ESE 17.4 mph28.0 kmh 29.96 in1014.6 mb 0.00 in0.0 mm 0.00 in0.0 mm 0.00 in0.0 mm
01:45 AM 37.6°F3.1°C 32.3°F0.2°C 81% 6.6 mph E10.6 kmh E 15.4 mph24.8 kmh 29.96 in1014.6 mb 0.00 in0.0 mm 0.00 in0.0 mm 0.00 in0.0 mm
02:00 AM 37.6°F3.1°C 32.3°F0.2°C 81% 6.1 mph ESE9.8 kmh ESE 17.2 mph27.7 kmh 29.96 in1014.6 mb 0.00 in0.0 mm 0.00 in0.0 mm 0.00 in0.0 mm
02:15 AM 37.6°F3.1°C 32.3°F0.2°C 81% 6.1 mph E9.8 kmh E 17.2 mph27.7 kmh 29.96 in1014.6 mb 0.00 in0.0 mm 0.00 in0.0 mm 0.00 in0.0 mm
02:30 AM 37.4°F3.0°C 32.1°F0.1°C 81% 6.8 mph ESE10.9 kmh ESE 20.4 mph32.8 kmh 29.96 in1014.6 mb 0.00 in0.0 mm 0.00 in0.0 mm 0.00 in0.0 mm
02:45 AM 37.6°F3.1°C 32.0°F0.0°C 80% 6.1 mph SE9.8 kmh SE 15.2 mph24.5 kmh 29.96 in1014.6 mb 0.00 in0.0 mm 0.00 in0.0 mm 0.00 in0.0 mm
03:00 AM 37.6°F3.1°C 32.0°F0.0°C 80% 6.8 mph ESE10.9 kmh ESE 18.3 mph29.5 kmh 29.95 in1014.2 mb 0.00 in0.0 mm 0.00 in0.0 mm 0.00 in0.0 mm
03:15 AM 37.6°F3.1°C 32.0°F0.0°C 80% 7.0 mph SE11.3 kmh SE 19.0 mph30.6 kmh 29.94 in1013.9 mb 0.00 in0.0 mm 0.00 in0.0 mm 0.00 in0.0 mm
03:30 AM 37.6°F3.1°C 32.0°F0.0°C 80% 7.2 mph SE11.6 kmh SE 17.2 mph27.7 kmh 29.95 in1014.2 mb 0.00 in0.0 mm 0.00 in0.0 mm 0.00 in0.0 mm
03:45 AM 37.6°F3.1°C 32.0°F0.0°C 80% 7.9 mph SSE12.7 kmh SSE 18.8 mph30.3 kmh 29.95 in1014.2 mb 0.00 in0.0 mm 0.00 in0.0 mm 0.00 in0.0 mm
04:00 AM 37.6°F3.1°C 32.0°F0.0°C 80% 6.6 mph SSE10.6 kmh SSE 13.0 mph20.9 kmh 29.94 in1013.9 mb 0.00 in0.0 mm 0.00 in0.0 mm 0.00 in0.0 mm
04:15 AM 37.8°F3.2°C 31.8°F-0.1°C 79% 5.5 mph SE8.9 kmh SE 11.6 mph18.7 kmh 29.94 in1013.9 mb 0.00 in0.0 mm 0.00 in0.0 mm 0.00 in0.0 mm
04:30 AM 37.9°F3.3°C 32.0°F0.0°C 79% 4.2 mph SE6.8 kmh SE 10.5 mph16.9 kmh 29.94 in1013.9 mb 0.00 in0.0 mm 0.00 in0.0 mm 0.00 in0.0 mm
04:45 AM 37.8°F3.2°C 31.5°F-0.3°C 78% 6.3 mph SE10.1 kmh SE 17.7 mph28.5 kmh 29.94 in1013.9 mb 0.00 in0.0 mm 0.00 in0.0 mm 0.00 in0.0 mm
05:00 AM 37.8°F3.2°C 31.5°F-0.3°C 78% 6.1 mph E9.8 kmh E 21.7 mph34.9 kmh 29.93 in1013.5 mb 0.00 in0.0 mm 0.00 in0.0 mm 0.00 in0.0 mm
05:15 AM 37.8°F3.2°C 31.5°F-0.3°C 78% 5.8 mph E9.3 kmh E 19.2 mph30.9 kmh 29.94 in1013.9 mb 0.00 in0.0 mm 0.00 in0.0 mm 0.00 in0.0 mm
05:30 AM 37.9°F3.3°C 31.7°F-0.2°C 78% 6.8 mph E10.9 kmh E 16.1 mph25.9 kmh 29.94 in1013.9 mb 0.00 in0.0 mm 0.00 in0.0 mm 0.00 in0.0 mm
05:45 AM 37.6°F3.1°C 31.3°F-0.4°C 78% 6.0 mph E9.7 kmh E 15.4 mph24.8 kmh 29.94 in1013.9 mb 0.00 in0.0 mm 0.00 in0.0 mm 0.00 in0.0 mm
06:00 AM 37.4°F3.0°C 31.5°F-0.3°C 79% 5.7 mph E9.2 kmh E 13.9 mph22.4 kmh 29.94 in1013.9 mb 0.00 in0.0 mm 0.00 in0.0 mm 0.00 in0.0 mm
06:15 AM 37.4°F3.0°C 31.5°F-0.3°C 79% 6.0 mph E9.7 kmh E 14.1 mph22.7 kmh 29.94 in1013.9 mb 0.00 in0.0 mm 0.00 in0.0 mm 0.00 in0.0 mm
06:30 AM 37.6°F3.1°C 31.7°F-0.2°C 79% 7.1 mph ESE11.4 kmh ESE 18.1 mph29.1 kmh 29.94 in1013.9 mb 0.00 in0.0 mm 0.00 in0.0 mm 0.00 in0.0 mm
06:45 AM 37.4°F3.0°C 31.5°F-0.3°C 79% 7.6 mph E12.2 kmh E 18.1 mph29.1 kmh 29.94 in1013.9 mb 0.00 in0.0 mm 0.00 in0.0 mm 0.00 in0.0 mm
07:00 AM 37.2°F2.9°C 31.3°F-0.4°C 79% 6.8 mph E10.9 kmh E 16.8 mph27.0 kmh 29.94 in1013.9 mb 0.00 in0.0 mm 0.00 in0.0 mm 0.00 in0.0 mm
07:15 AM 37.4°F3.0°C 31.5°F-0.3°C 79% 5.6 mph E9.0 kmh E 17.9 mph28.8 kmh 29.95 in1014.2 mb 0.00 in0.0 mm 0.00 in0.0 mm 0.00 in0.0 mm
07:30 AM 37.2°F2.9°C 31.3°F-0.4°C 79% 5.4 mph E8.7 kmh E 16.6 mph26.7 kmh 29.96 in1014.6 mb 0.00 in0.0 mm 0.00 in0.0 mm 0.00 in0.0 mm
07:45 AM 37.4°F3.0°C 31.5°F-0.3°C 79% 5.9 mph ESE9.5 kmh ESE 19.5 mph31.4 kmh 29.96 in1014.6 mb 0.00 in0.0 mm 0.00 in0.0 mm 0.00 in0.0 mm
08:00 AM 37.4°F3.0°C 31.5°F-0.3°C 79% 8.0 mph SE12.9 kmh SE 18.1 mph29.1 kmh 29.96 in1014.6 mb 0.00 in0.0 mm 0.00 in0.0 mm 0.00 in0.0 mm
08:15 AM 37.8°F3.2°C 31.8°F-0.1°C 79% 7.2 mph SE11.6 kmh SE 15.0 mph24.1 kmh 29.97 in1014.9 mb 0.00 in0.0 mm 0.00 in0.0 mm 0.00 in0.0 mm
08:30 AM 37.9°F3.3°C 31.7°F-0.2°C 78% 7.9 mph SE12.7 kmh SE 21.9 mph35.2 kmh 29.97 in1014.9 mb 0.00 in0.0 mm 0.00 in0.0 mm 0.00 in0.0 mm
08:45 AM 38.3°F3.5°C 31.7°F-0.2°C 77% 8.6 mph SE13.8 kmh SE 17.9 mph28.8 kmh 29.96 in1014.6 mb 0.00 in0.0 mm 0.00 in0.0 mm 0.00 in0.0 mm
09:00 AM 39.0°F3.9°C 32.1°F0.1°C 76% 6.4 mph ESE10.3 kmh ESE 15.2 mph24.5 kmh 29.96 in1014.6 mb 0.00 in0.0 mm 0.00 in0.0 mm 0.00 in0.0 mm
09:15 AM 39.9°F4.4°C 32.6°F0.3°C 75% 5.7 mph SE9.2 kmh SE 13.0 mph20.9 kmh 29.96 in1014.6 mb 0.00 in0.0 mm 0.00 in0.0 mm 0.00 in0.0 mm
09:30 AM 40.8°F4.9°C 32.8°F0.4°C 73% 6.6 mph ESE10.6 kmh ESE 17.4 mph28.0 kmh 29.96 in1014.6 mb 0.00 in0.0 mm 0.00 in0.0 mm 0.00 in0.0 mm
09:45 AM 41.2°F5.1°C 33.2°F0.7°C 73% 5.2 mph E8.4 kmh E 13.2 mph21.2 kmh 29.96 in1014.6 mb 0.00 in0.0 mm 0.00 in0.0 mm 0.00 in0.0 mm
10:00 AM 41.0°F5.0°C 33.0°F0.6°C 73% 6.2 mph ENE10.0 kmh ENE 15.7 mph25.3 kmh 29.97 in1014.9 mb 0.00 in0.0 mm 0.00 in0.0 mm 0.00 in0.0 mm
10:15 AM 41.2°F5.1°C 33.2°F0.7°C 73% 5.3 mph ENE8.5 kmh ENE 14.1 mph22.7 kmh 29.96 in1014.6 mb 0.00 in0.0 mm 0.00 in0.0 mm 0.00 in0.0 mm
10:30 AM 41.0°F5.0°C 33.0°F0.6°C 73% 6.6 mph E10.6 kmh E 14.5 mph23.3 kmh 29.96 in1014.6 mb 0.00 in0.0 mm 0.00 in0.0 mm 0.00 in0.0 mm
10:45 AM 41.7°F5.4°C 33.7°F0.9°C 73% 6.5 mph E10.5 kmh E 14.5 mph23.3 kmh 29.97 in1014.9 mb 0.00 in0.0 mm 0.00 in0.0 mm 0.00 in0.0 mm
11:00 AM 42.3°F5.7°C 33.5°F0.8°C 71% 6.5 mph E10.5 kmh E 18.3 mph29.5 kmh 29.96 in1014.6 mb 0.00 in0.0 mm 0.00 in0.0 mm 0.00 in0.0 mm
11:15 AM 42.4°F5.8°C 33.7°F0.9°C 71% 6.9 mph ESE11.1 kmh ESE 15.9 mph25.6 kmh 29.96 in1014.6 mb 0.00 in0.0 mm 0.00 in0.0 mm 0.00 in0.0 mm
11:30 AM 43.0°F6.1°C 34.2°F1.2°C 71% 6.0 mph ESE9.7 kmh ESE 14.1 mph22.7 kmh 29.96 in1014.6 mb 0.00 in0.0 mm 0.00 in0.0 mm 0.00 in0.0 mm
11:45 AM 43.2°F6.2°C 34.0°F1.1°C 70% 7.0 mph E11.3 kmh E 16.3 mph26.2 kmh 29.96 in1014.6 mb 0.00 in0.0 mm 0.00 in0.0 mm 0.00 in0.0 mm
12:00 PM 43.3°F6.3°C 34.2°F1.2°C 70% 7.8 mph SE12.6 kmh SE 17.4 mph28.0 kmh 29.96 in1014.6 mb 0.00 in0.0 mm 0.00 in0.0 mm 0.00 in0.0 mm
12:15 PM 43.9°F6.6°C 34.4°F1.3°C 69% 7.4 mph SE11.9 kmh SE 15.7 mph25.3 kmh 29.95 in1014.2 mb 0.00 in0.0 mm 0.00 in0.0 mm 0.00 in0.0 mm
12:30 PM 44.4°F6.9°C 34.5°F1.4°C 68% 7.4 mph SE11.9 kmh SE 16.8 mph27.0 kmh 29.95 in1014.2 mb 0.00 in0.0 mm 0.00 in0.0 mm 0.00 in0.0 mm
12:45 PM 43.0°F6.1°C 33.5°F0.8°C 69% 7.1 mph SE11.4 kmh SE 17.9 mph28.8 kmh 29.95 in1014.2 mb 0.00 in0.0 mm 0.00 in0.0 mm 0.00 in0.0 mm
01:00 PM 43.3°F6.3°C 33.8°F1.0°C 69% 7.1 mph SE11.4 kmh SE 14.8 mph23.8 kmh 29.94 in1013.9 mb 0.00 in0.0 mm 0.00 in0.0 mm 0.00 in0.0 mm
01:15 PM 44.4°F6.9°C 33.8°F1.0°C 66% 7.5 mph SE12.1 kmh SE 16.6 mph26.7 kmh 29.94 in1013.9 mb 0.00 in0.0 mm 0.00 in0.0 mm 0.00 in0.0 mm
01:30 PM 45.0°F7.2°C 34.3°F1.3°C 66% 7.3 mph SE11.7 kmh SE 15.9 mph25.6 kmh 29.93 in1013.5 mb 0.00 in0.0 mm 0.00 in0.0 mm 0.00 in0.0 mm
01:45 PM 45.3°F7.4°C 34.2°F1.2°C 65% 5.6 mph SE9.0 kmh SE 17.9 mph28.8 kmh 29.94 in1013.9 mb 0.00 in0.0 mm 0.00 in0.0 mm 0.00 in0.0 mm
02:00 PM 45.3°F7.4°C 34.2°F1.2°C 65% 4.2 mph ENE6.8 kmh ENE 11.0 mph17.7 kmh 29.93 in1013.5 mb 0.00 in0.0 mm 0.00 in0.0 mm 0.00 in0.0 mm
02:15 PM 45.0°F7.2°C 33.9°F1.1°C 65% 5.7 mph SE9.2 kmh SE 15.4 mph24.8 kmh 29.93 in1013.5 mb 0.00 in0.0 mm 0.00 in0.0 mm 0.00 in0.0 mm
02:30 PM 44.4°F6.9°C 33.8°F1.0°C 66% 6.9 mph SE11.1 kmh SE 15.0 mph24.1 kmh 29.92 in1013.2 mb 0.00 in0.0 mm 0.00 in0.0 mm 0.00 in0.0 mm
02:45 PM 43.3°F6.3°C 33.1°F0.6°C 67% 6.5 mph SE10.5 kmh SE 15.9 mph25.6 kmh 29.92 in1013.2 mb 0.00 in0.0 mm 0.00 in0.0 mm 0.00 in0.0 mm
03:00 PM 43.0°F6.1°C 32.8°F0.4°C 67% 5.6 mph ESE9.0 kmh ESE 13.4 mph21.6 kmh 29.92 in1013.2 mb 0.00 in0.0 mm 0.00 in0.0 mm 0.00 in0.0 mm
03:15 PM 42.6°F5.9°C 32.8°F0.4°C 68% 6.1 mph SE9.8 kmh SE 15.4 mph24.8 kmh 29.92 in1013.2 mb 0.00 in0.0 mm 0.00 in0.0 mm 0.00 in0.0 mm
03:30 PM 42.1°F5.6°C 32.6°F0.3°C 69% 5.8 mph SE9.3 kmh SE 12.8 mph20.6 kmh 29.92 in1013.2 mb 0.00 in0.0 mm 0.00 in0.0 mm 0.00 in0.0 mm
03:45 PM 41.9°F5.5°C 32.5°F0.3°C 69% 4.6 mph SE7.4 kmh SE 10.3 mph16.6 kmh 29.92 in1013.2 mb 0.00 in0.0 mm 0.00 in0.0 mm 0.00 in0.0 mm
04:00 PM 41.2°F5.1°C 32.1°F0.1°C 70% 4.8 mph SE7.7 kmh SE 15.2 mph24.5 kmh 29.92 in1013.2 mb 0.00 in0.0 mm 0.00 in0.0 mm 0.00 in0.0 mm
04:15 PM 40.6°F4.8°C 31.6°F-0.2°C 70% 5.2 mph SE8.4 kmh SE 15.0 mph24.1 kmh 29.92 in1013.2 mb 0.00 in0.0 mm 0.00 in0.0 mm 0.00 in0.0 mm
04:30 PM 39.7°F4.3°C 31.4°F-0.3°C 72% 4.8 mph SE7.7 kmh SE 10.7 mph17.2 kmh 29.92 in1013.2 mb 0.00 in0.0 mm 0.00 in0.0 mm 0.00 in0.0 mm
04:45 PM 38.8°F3.8°C 31.3°F-0.4°C 74% 5.4 mph SE8.7 kmh SE 12.5 mph20.1 kmh 29.92 in1013.2 mb 0.00 in0.0 mm 0.00 in0.0 mm 0.00 in0.0 mm
05:00 PM 38.5°F3.6°C 31.2°F-0.4°C 75% 4.8 mph SE7.7 kmh SE 10.7 mph17.2 kmh 29.92 in1013.2 mb 0.00 in0.0 mm 0.00 in0.0 mm 0.00 in0.0 mm
05:15 PM 38.1°F3.4°C 30.9°F-0.6°C 75% 4.3 mph SSE6.9 kmh SSE 15.7 mph25.3 kmh 29.92 in1013.2 mb 0.00 in0.0 mm 0.00 in0.0 mm 0.00 in0.0 mm
05:30 PM 37.9°F3.3°C 30.7°F-0.7°C 75% 4.0 mph S6.4 kmh S 11.2 mph18.0 kmh 29.93 in1013.5 mb 0.00 in0.0 mm 0.00 in0.0 mm 0.00 in0.0 mm
05:45 PM 37.8°F3.2°C 30.9°F-0.6°C 76% 5.0 mph SSE8.0 kmh SSE 12.1 mph19.5 kmh 29.93 in1013.5 mb 0.00 in0.0 mm 0.00 in0.0 mm 0.00 in0.0 mm
06:00 PM 37.6°F3.1°C 30.7°F-0.7°C 76% 5.6 mph ESE9.0 kmh ESE 13.0 mph20.9 kmh 29.92 in1013.2 mb 0.00 in0.0 mm 0.00 in0.0 mm 0.00 in0.0 mm
06:15 PM 37.4°F3.0°C 30.5°F-0.8°C 76% 4.5 mph NE7.2 kmh NE 13.0 mph20.9 kmh 29.92 in1013.2 mb 0.00 in0.0 mm 0.00 in0.0 mm 0.00 in0.0 mm
06:30 PM 37.2°F2.9°C 30.3°F-0.9°C 76% 4.8 mph SSW7.7 kmh SSW 11.6 mph18.7 kmh 29.92 in1013.2 mb 0.00 in0.0 mm 0.00 in0.0 mm 0.00 in0.0 mm
06:45 PM 37.2°F2.9°C 30.3°F-0.9°C 76% 4.6 mph WNW7.4 kmh WNW 10.1 mph16.3 kmh 29.92 in1013.2 mb 0.00 in0.0 mm 0.00 in0.0 mm 0.00 in0.0 mm
07:00 PM 36.9°F2.7°C 30.3°F-0.9°C 77% 5.3 mph NNW8.5 kmh NNW 14.1 mph22.7 kmh 29.92 in1013.2 mb 0.00 in0.0 mm 0.00 in0.0 mm 0.00 in0.0 mm
07:15 PM 36.9°F2.7°C 30.3°F-0.9°C 77% 4.6 mph NW7.4 kmh NW 11.9 mph19.2 kmh 29.92 in1013.2 mb 0.00 in0.0 mm 0.00 in0.0 mm 0.00 in0.0 mm
07:30 PM 36.7°F2.6°C 30.5°F-0.8°C 78% 4.8 mph WSW7.7 kmh WSW 14.5 mph23.3 kmh 29.92 in1013.2 mb 0.00 in0.0 mm 0.00 in0.0 mm 0.00 in0.0 mm
07:45 PM 36.3°F2.4°C 30.1°F-1.1°C 78% 4.5 mph WNW7.2 kmh WNW 9.6 mph15.4 kmh 29.92 in1013.2 mb 0.00 in0.0 mm 0.00 in0.0 mm 0.00 in0.0 mm
08:00 PM 36.1°F2.3°C 29.9°F-1.2°C 78% 4.1 mph NNW6.6 kmh NNW 12.8 mph20.6 kmh 29.93 in1013.5 mb 0.00 in0.0 mm 0.00 in0.0 mm 0.00 in0.0 mm
08:15 PM 36.1°F2.3°C 29.9°F-1.2°C 78% 4.9 mph N7.9 kmh N 13.0 mph20.9 kmh 29.93 in1013.5 mb 0.00 in0.0 mm 0.00 in0.0 mm 0.00 in0.0 mm
08:30 PM 36.1°F2.3°C 30.3°F-0.9°C 79% 4.5 mph WSW7.2 kmh WSW 11.2 mph18.0 kmh 29.92 in1013.2 mb 0.00 in0.0 mm 0.00 in0.0 mm 0.00 in0.0 mm
08:45 PM 36.1°F2.3°C 29.9°F-1.2°C 78% 4.8 mph W7.7 kmh W 14.1 mph22.7 kmh 29.93 in1013.5 mb 0.00 in0.0 mm 0.00 in0.0 mm 0.00 in0.0 mm
09:00 PM 36.0°F2.2°C 29.8°F-1.2°C 78% 3.5 mph W5.6 kmh W 8.7 mph14.0 kmh 29.93 in1013.5 mb 0.00 in0.0 mm 0.00 in0.0 mm 0.00 in0.0 mm
09:15 PM 36.3°F2.4°C 30.1°F-1.1°C 78% 3.4 mph WNW5.5 kmh WNW 9.8 mph15.8 kmh 29.93 in1013.5 mb 0.00 in0.0 mm 0.00 in0.0 mm 0.00 in0.0 mm
09:30 PM 36.3°F2.4°C 29.8°F-1.2°C 77% 4.1 mph SW6.6 kmh SW 10.7 mph17.2 kmh 29.93 in1013.5 mb 0.00 in0.0 mm 0.00 in0.0 mm 0.00 in0.0 mm
09:45 PM 36.1°F2.3°C 29.6°F-1.3°C 77% 4.3 mph WSW6.9 kmh WSW 8.9 mph14.3 kmh 29.92 in1013.2 mb 0.00 in0.0 mm 0.00 in0.0 mm 0.00 in0.0 mm
10:00 PM 36.1°F2.3°C 29.6°F-1.3°C 77% 3.5 mph W5.6 kmh W 9.2 mph14.8 kmh 29.92 in1013.2 mb 0.00 in0.0 mm 0.00 in0.0 mm 0.00 in0.0 mm
10:15 PM 36.3°F2.4°C 29.8°F-1.2°C 77% 3.3 mph NW5.3 kmh NW 8.5 mph13.7 kmh 29.92 in1013.2 mb 0.00 in0.0 mm 0.00 in0.0 mm 0.00 in0.0 mm
10:30 PM 36.1°F2.3°C 29.6°F-1.3°C 77% 4.8 mph SSW7.7 kmh SSW 11.0 mph17.7 kmh 29.92 in1013.2 mb 0.00 in0.0 mm 0.00 in0.0 mm 0.00 in0.0 mm
10:45 PM 35.8°F2.1°C 29.3°F-1.5°C 77% 1.9 mph SW3.1 kmh SW 5.1 mph8.2 kmh 29.92 in1013.2 mb 0.00 in0.0 mm 0.00 in0.0 mm 0.00 in0.0 mm
11:00 PM 35.8°F2.1°C 29.3°F-1.5°C 77% 2.7 mph WSW4.3 kmh WSW 6.5 mph10.5 kmh 29.91 in1012.9 mb 0.00 in0.0 mm 0.00 in0.0 mm 0.00 in0.0 mm
11:15 PM 35.4°F1.9°C 28.9°F-1.7°C 77% 1.3 mph SW2.1 kmh SW 4.5 mph7.2 kmh 29.92 in1013.2 mb 0.00 in0.0 mm 0.00 in0.0 mm 0.00 in0.0 mm
11:30 PM 35.2°F1.8°C 28.8°F-1.8°C 77% 1.7 mph WNW2.7 kmh WNW 4.0 mph6.4 kmh 29.91 in1012.9 mb 0.00 in0.0 mm 0.00 in0.0 mm 0.00 in0.0 mm
11:45 PM 34.9°F1.6°C 28.7°F-1.8°C 78% 0.9 mph NW1.4 kmh NW 2.7 mph4.3 kmh 29.92 in1013.2 mb 0.00 in0.0 mm 0.00 in0.0 mm 0.00 in0.0 mm